Philadelphia, PA

7:56 PM EDT on May 24, 2015 (GMT -0400)
Somerton | | Change Station
CLOSE
Current Station
Personal Weather Station
Location: Philadelphia, PA
Elevation: 167 ft
Nearby Weather Stations

Elev 167 ft 40.13 °N, 75.00 °W | Updated 10 minutes ago

Clear
Clear
76.8 °F
Feels Like 78 °F
N
0.0
Wind Variable Wind from ENE

Today
High -- | Low -- °F
--% Chance of Precip.
Yesterday
High -- | Low -- °F
Precip. -- in
5:37 AM 8:16 PM
Waxing Crescent, 43% visible
Pressure 30.26 in
Visibility 10.0 miles
Clouds Clear
Heat Index 78 °F
Dew Point 51 °F
Humidity 41%
Rainfall 0.00 in
Snow Depth Not available.
UV 1 out of 12
Pollen 8.00 out of 12
Air Quality Not available.
Flu Activity Sporadic
METAR KPNE 242254Z AUTO 20005KT 10SM CLR 27/04 A3026 RMK AO2 SLP245 T02670044 TSNO

More Conditions Fewer Conditions

Pressure 30.26 in
Visibility 10.0 miles
Clouds Clear
Heat Index 78 °F
Dew Point 51 °F
Humidity 41%
Rainfall 0.00 in
Snow Depth Not available.
UV 1 out of 12
Pollen 8.00 out of 12
Air Quality Not available.
Flu Activity Sporadic
METAR KPNE 242254Z AUTO 20005KT 10SM CLR 27/04 A3026 RMK AO2 SLP245 T02670044 TSNO

More Conditions Fewer Conditions

10-Day Weather Forecast

Almanac

Astronomy

May. 24, 2015 Rise Set
Actual Time
Civil Twilight
Nautical Twilight
Astronomical Twilight
Moon
Length of Visible Light
Length of Day
Tomorrow will be .
, % of the Moon is Illuminated

Today's Extremes

State Highs State Lows

Community

WunderPhotos

Upload Photos

1,823,895 photos uploaded!

WunderBlogs® & News

Nearby

Air Quality

  Air Quality AQ Index Pollutant
Not available.

Snow Depth

Station Depth Elevation

Earthquake Activity

City Distance Mag. Time & Date
Minimum magnitude displayed is 2.5.

Coastal Water Temperatures

Place Temperature

Stations

Nearby Weather Stations

Station Location Temp. Windchill Dew Point Humidity Wind Precip. Elev Updated Type